TAF EHAM
AMD EHAM 090835Z 0908/1012 18010KT 9999 BKN008 TEMPO 0908/0920 7000 -RADZ -SHRA FEW008 BKN014 SCT018TCU BECMG 0910/0912 SCT010 BKN018 PROB40 1000/1012 6000 BKN006 BECMG 1001/1004 14012KT BKN014 PROB30 TEMPO 1008/1012 4000 -RASN BECMG 1009/1012 13005KT=
METAR EHAM
EHAM 091055Z 19012KT 9999 BKN007 05/03 Q1001 TEMPO 6000 -RA=
EHAM 091025Z 19012KT 9999 BKN008 04/03 Q1001 TEMPO SCT008=
EHAM 090955Z 18010KT 140V210 9999 SCT007 BKN008 03/02 Q1001 NOSIG=
EHAM 090925Z 17010KT 140V200 9999 FEW007 BKN008 03/02 Q1001 NOSIG=
EHAM 090855Z 17010KT 9999 FEW007 BKN008 03/02 Q1001 NOSIG=
WC EHAM
WS EHAM
WV EHAM